createdAt,value
2022-11-06T00:01:11.258Z,78.76
2022-11-06T00:03:38.055Z,78.92
2022-11-06T00:06:09.018Z,79.11
2022-11-06T00:08:38.399Z,79.35
2022-11-06T00:11:16.027Z,78.67
2022-11-06T00:13:43.198Z,78.73
2022-11-06T00:16:11.528Z,78.73
2022-11-06T00:18:39.444Z,78.58
2022-11-06T00:21:07.970Z,78.42
2022-11-06T00:23:34.500Z,78.66
2022-11-06T00:26:00.912Z,78.48
2022-11-06T00:28:27.236Z,78.60
2022-11-06T00:31:10.760Z,78.95
2022-11-06T00:33:37.911Z,78.71
2022-11-06T00:36:07.080Z,78.73
2022-11-06T00:38:34.073Z,78.27
2022-11-06T00:41:09.653Z,78.18
2022-11-06T00:43:36.779Z,78.42
2022-11-06T00:46:11.890Z,78.43
2022-11-06T00:48:39.527Z,78.14
2022-11-06T00:51:11.875Z,77.85
2022-11-06T00:53:38.454Z,78.64
2022-11-06T00:56:13.384Z,78.85
2022-11-06T00:58:40.160Z,78.33
2022-11-06T01:01:20.230Z,78.12
2022-11-06T01:03:48.586Z,78.34
2022-11-06T01:06:22.185Z,78.75
2022-11-06T01:08:49.681Z,78.70
2022-11-06T01:11:19.447Z,78.83
2022-11-06T01:13:48.425Z,78.99
2022-11-06T01:16:15.888Z,79.35
2022-11-06T01:18:44.016Z,79.50
2022-11-06T01:21:13.101Z,79.95
2022-11-06T01:23:40.171Z,79.99
2022-11-06T01:26:08.682Z,79.65
2022-11-06T01:28:35.457Z,79.84
2022-11-06T01:31:03.961Z,78.91
2022-11-06T01:33:30.573Z,79.36
2022-11-06T01:35:56.982Z,79.11
2022-11-06T01:38:23.615Z,78.95
2022-11-06T01:40:49.965Z,79.08
2022-11-06T01:43:23.531Z,79.06
2022-11-06T01:45:52.552Z,78.92
2022-11-06T01:48:27.851Z,79.66
2022-11-06T01:50:57.938Z,80.26
2022-11-06T01:53:25.592Z,80.24
2022-11-06T01:55:55.860Z,80.30
2022-11-06T01:58:25.152Z,80.03
2022-11-06T02:00:51.571Z,80.12
2022-11-06T02:03:18.785Z,80.19
2022-11-06T02:05:45.857Z,80.03
2022-11-06T02:08:14.554Z,80.58
2022-11-06T02:10:42.399Z,80.50
2022-11-06T02:13:17.846Z,80.08
2022-11-06T02:15:54.316Z,80.10
2022-11-06T02:18:50.674Z,80.44
2022-11-06T02:22:10.837Z,80.33
2022-11-06T02:24:52.393Z,80.73
2022-11-06T02:27:22.663Z,80.56
2022-11-06T02:30:04.009Z,80.80
2022-11-06T02:32:30.316Z,80.91
2022-11-06T02:35:01.199Z,80.61
2022-11-06T02:37:32.318Z,80.44
2022-11-06T02:40:01.600Z,80.37
2022-11-06T02:42:30.454Z,80.28
2022-11-06T02:44:58.316Z,79.97
2022-11-06T02:47:28.531Z,80.09
2022-11-06T02:50:01.268Z,80.33
2022-11-06T02:52:34.144Z,80.60
2022-11-06T02:55:13.334Z,80.54
2022-11-06T02:57:46.514Z,80.53
2022-11-06T03:00:15.713Z,80.41
2022-11-06T03:02:53.012Z,80.35
2022-11-06T03:05:31.823Z,80.33
2022-11-06T03:08:24.979Z,80.95
2022-11-06T03:11:14.921Z,81.44
2022-11-06T03:14:09.254Z,81.68
2022-11-06T03:16:56.401Z,81.34
2022-11-06T03:19:37.752Z,81.40
2022-11-06T03:22:20.948Z,81.50
2022-11-06T03:25:02.511Z,82.03
2022-11-06T03:27:36.742Z,81.63
2022-11-06T03:30:08.862Z,81.51
2022-11-06T03:33:01.108Z,81.68
2022-11-06T03:35:51.312Z,81.75
2022-11-06T03:38:26.840Z,82.07
2022-11-06T03:40:59.482Z,81.62
2022-11-06T03:43:31.740Z,81.62
2022-11-06T03:46:01.631Z,81.98
2022-11-06T03:48:36.505Z,82.10
2022-11-06T03:51:08.292Z,81.88
2022-11-06T03:53:51.998Z,82.04
2022-11-06T03:56:33.450Z,82.17
2022-11-06T03:59:03.188Z,82.17
2022-11-06T04:01:35.457Z,81.95
2022-11-06T04:04:06.860Z,81.79
2022-11-06T04:06:40.676Z,81.89
2022-11-06T04:09:10.452Z,81.85
2022-11-06T04:11:40.039Z,82.05
2022-11-06T04:14:08.955Z,82.04
2022-11-06T04:16:39.569Z,82.48
2022-11-06T04:19:13.742Z,82.33
2022-11-06T04:22:07.756Z,82.14
2022-11-06T04:24:41.968Z,81.26
2022-11-06T04:27:27.263Z,81.07
2022-11-06T04:30:19.895Z,80.83
2022-11-06T04:33:10.155Z,80.87
2022-11-06T04:35:54.462Z,81.27
2022-11-06T04:38:47.062Z,81.28
2022-11-06T04:41:40.887Z,80.97
2022-11-06T04:44:17.243Z,80.62
2022-11-06T04:46:49.556Z,80.27
2022-11-06T04:49:17.295Z,80.63
2022-11-06T04:51:46.185Z,80.07
2022-11-06T04:54:13.855Z,80.41
2022-11-06T04:56:45.747Z,80.56
2022-11-06T04:59:16.334Z,80.33
2022-11-06T05:01:42.765Z,80.40
2022-11-06T05:04:10.656Z,80.73
2022-11-06T05:06:36.985Z,81.54
2022-11-06T05:09:03.786Z,81.54
2022-11-06T05:11:30.178Z,81.96
2022-11-06T05:13:56.513Z,82.03
2022-11-06T05:16:22.823Z,82.62
2022-11-06T05:18:49.157Z,82.50
2022-11-06T05:21:15.757Z,82.71
2022-11-06T05:23:42.104Z,82.47
2022-11-06T05:26:08.711Z,82.54
2022-11-06T05:28:35.046Z,81.92
2022-11-06T05:31:01.369Z,82.20
2022-11-06T05:33:27.691Z,81.97
2022-11-06T05:35:54.087Z,81.97
2022-11-06T05:38:20.574Z,82.19
2022-11-06T05:40:46.881Z,82.66
2022-11-06T05:43:13.291Z,83.04
2022-11-06T05:45:39.656Z,82.80
2022-11-06T05:48:06.309Z,82.68
2022-11-06T05:50:32.601Z,83.23
2022-11-06T05:53:00.229Z,83.43
2022-11-06T05:55:26.527Z,83.07
2022-11-06T05:57:52.820Z,83.44
2022-11-06T06:00:19.169Z,83.55
2022-11-06T06:02:45.623Z,83.82
2022-11-06T06:05:12.126Z,83.73
2022-11-06T06:07:38.452Z,83.84
2022-11-06T06:10:05.285Z,83.66
2022-11-06T06:12:31.600Z,83.69
2022-11-06T06:14:57.896Z,83.69
2022-11-06T06:17:24.213Z,82.91
2022-11-06T06:19:50.538Z,83.06
2022-11-06T06:22:16.869Z,83.30
2022-11-06T06:24:43.392Z,83.29
2022-11-06T06:27:10.070Z,83.44
2022-11-06T06:29:36.382Z,83.22
2022-11-06T06:32:03.902Z,82.90
2022-11-06T06:34:30.246Z,82.47
2022-11-06T06:36:56.645Z,82.60
2022-11-06T06:39:22.939Z,82.89
2022-11-06T06:41:49.620Z,83.00
2022-11-06T06:44:16.127Z,82.62
2022-11-06T06:46:42.680Z,82.08
2022-11-06T06:49:09.027Z,82.14
2022-11-06T06:51:35.357Z,82.37
2022-11-06T06:54:01.680Z,82.25
2022-11-06T06:56:28.019Z,81.91
2022-11-06T06:58:54.363Z,81.70
2022-11-06T07:01:21.341Z,81.23
2022-11-06T07:03:48.030Z,81.15
2022-11-06T07:06:14.346Z,80.82
2022-11-06T07:08:40.729Z,81.46
2022-11-06T07:11:08.930Z,81.42
2022-11-06T07:13:36.645Z,80.94
2022-11-06T07:16:08.520Z,80.53
2022-11-06T07:18:36.217Z,80.84
2022-11-06T07:21:10.819Z,80.94
2022-11-06T07:23:37.754Z,80.98
2022-11-06T07:26:05.445Z,81.38
2022-11-06T07:28:32.686Z,81.38
2022-11-06T07:31:00.705Z,81.33
2022-11-06T07:33:27.277Z,80.89
2022-11-06T07:35:53.615Z,80.75
2022-11-06T07:38:19.924Z,81.15
2022-11-06T07:40:46.257Z,80.79
2022-11-06T07:43:12.958Z,80.37
2022-11-06T07:45:39.806Z,80.11
2022-11-06T07:48:06.668Z,79.99
2022-11-06T07:50:33.199Z,79.65
2022-11-06T07:53:02.031Z,79.42
2022-11-06T07:55:28.324Z,79.13
2022-11-06T07:57:54.626Z,78.58
2022-11-06T08:00:21.111Z,78.08
2022-11-06T08:02:53.529Z,77.77
2022-11-06T08:05:20.205Z,77.60
2022-11-06T08:07:46.541Z,77.50
2022-11-06T08:10:12.870Z,77.12
2022-11-06T08:12:39.186Z,77.55
2022-11-06T08:15:05.964Z,77.32
2022-11-06T08:17:32.284Z,77.07
2022-11-06T08:19:58.591Z,76.01
2022-11-06T08:22:24.897Z,75.48
2022-11-06T08:24:51.238Z,75.16
2022-11-06T08:27:17.544Z,75.13
2022-11-06T08:29:43.898Z,74.76
2022-11-06T08:32:10.216Z,75.01
2022-11-06T08:34:36.541Z,75.00
2022-11-06T08:37:02.965Z,74.79
2022-11-06T08:39:30.012Z,74.70
2022-11-06T08:41:56.342Z,75.02
2022-11-06T08:44:24.244Z,74.21
2022-11-06T08:46:52.113Z,74.71
2022-11-06T08:49:18.814Z,74.19
2022-11-06T08:51:45.119Z,74.39
2022-11-06T08:54:11.539Z,74.94
2022-11-06T08:56:38.013Z,75.36
2022-11-06T08:59:04.345Z,75.30
2022-11-06T09:01:30.928Z,75.75
2022-11-06T09:03:57.495Z,75.47
2022-11-06T09:06:23.840Z,75.73
2022-11-06T09:08:50.169Z,75.81
2022-11-06T09:11:16.579Z,74.68
2022-11-06T09:13:42.885Z,74.12
2022-11-06T09:16:15.316Z,73.82
2022-11-06T09:18:42.573Z,73.57
2022-11-06T09:21:08.925Z,73.18
2022-11-06T09:23:35.257Z,72.46
2022-11-06T09:26:01.691Z,72.25
2022-11-06T09:28:28.052Z,71.72
2022-11-06T09:30:54.366Z,70.90
2022-11-06T09:33:21.041Z,71.39
2022-11-06T09:35:47.561Z,71.58
2022-11-06T09:38:14.241Z,70.63
2022-11-06T09:40:54.329Z,70.48
2022-11-06T09:44:03.123Z,70.38
2022-11-06T09:46:27.739Z,70.12
2022-11-06T09:49:12.225Z,70.41
2022-11-06T09:51:44.268Z,70.28
2022-11-06T09:54:25.775Z,69.62
2022-11-06T09:57:00.689Z,69.33
2022-11-06T09:59:27.055Z,69.02
2022-11-06T10:01:59.494Z,69.04
2022-11-06T10:04:49.501Z,67.86
2022-11-06T10:07:28.141Z,68.29
2022-11-06T10:09:54.784Z,67.57
2022-11-06T10:12:58.540Z,67.61
2022-11-06T10:15:32.281Z,67.46
2022-11-06T10:18:13.615Z,66.46
2022-11-06T10:20:52.762Z,66.01
2022-11-06T10:23:39.132Z,65.38
2022-11-06T10:26:20.106Z,65.07
2022-11-06T10:28:58.385Z,64.17
2022-11-06T10:31:56.953Z,63.56
2022-11-06T10:34:39.742Z,63.69
2022-11-06T10:37:13.494Z,62.87
2022-11-06T10:39:40.277Z,62.78
2022-11-06T10:42:15.752Z,61.88
2022-11-06T10:45:14.189Z,61.34
2022-11-06T10:47:46.943Z,61.07
2022-11-06T10:50:15.847Z,60.88
2022-11-06T10:52:54.369Z,61.99
2022-11-06T10:55:41.608Z,61.73
2022-11-06T10:58:18.345Z,62.61
2022-11-06T11:00:45.051Z,63.27
2022-11-06T11:03:30.046Z,62.57
2022-11-06T11:05:56.596Z,62.36
2022-11-06T11:08:28.628Z,62.28
2022-11-06T11:11:21.620Z,62.57
2022-11-06T11:14:14.974Z,62.93
2022-11-06T11:16:45.557Z,62.71
2022-11-06T11:19:32.625Z,63.79
2022-11-06T11:22:01.125Z,63.83
2022-11-06T11:24:28.138Z,64.13
2022-11-06T11:27:00.026Z,64.09
2022-11-06T11:29:29.255Z,64.06
2022-11-06T11:32:05.865Z,63.74
2022-11-06T11:34:35.864Z,64.50
2022-11-06T11:37:05.179Z,64.34
2022-11-06T11:39:36.457Z,65.31
2022-11-06T11:42:23.200Z,64.18
2022-11-06T11:45:08.370Z,64.32
2022-11-06T11:47:39.485Z,64.50
2022-11-06T11:50:23.797Z,64.82
2022-11-06T11:53:09.602Z,64.18
2022-11-06T11:55:40.778Z,64.28
2022-11-06T11:58:24.732Z,64.44
2022-11-06T12:00:57.812Z,64.35
2022-11-06T12:03:28.726Z,64.53
2022-11-06T12:06:05.763Z,64.47
2022-11-06T12:08:32.334Z,64.01
2022-11-06T12:11:06.802Z,63.66
2022-11-06T12:13:33.303Z,63.59
2022-11-06T12:16:07.608Z,63.07
2022-11-06T12:18:37.033Z,62.87
2022-11-06T12:21:14.039Z,60.84
2022-11-06T12:24:09.760Z,60.86
2022-11-06T12:26:41.815Z,61.60
2022-11-06T12:29:14.902Z,62.16
2022-11-06T12:32:02.961Z,62.74
2022-11-06T12:34:48.140Z,63.44
2022-11-06T12:37:21.452Z,63.85
2022-11-06T12:39:57.047Z,64.45
2022-11-06T12:42:29.953Z,63.82
2022-11-06T12:44:56.383Z,64.38
2022-11-06T12:47:53.836Z,64.34
2022-11-06T12:51:01.174Z,64.17
2022-11-06T12:53:44.013Z,63.69
2022-11-06T12:56:46.617Z,64.44
2022-11-06T12:59:28.205Z,63.48
2022-11-06T13:02:19.367Z,62.87
2022-11-06T13:05:27.810Z,63.14
2022-11-06T13:07:59.854Z,62.91
2022-11-06T13:10:44.562Z,64.17
2022-11-06T13:13:36.450Z,63.42
2022-11-06T13:16:14.824Z,63.80
2022-11-06T13:18:53.090Z,63.92
2022-11-06T13:21:33.865Z,63.68
2022-11-06T13:24:12.672Z,63.99
2022-11-06T13:26:50.796Z,63.82
2022-11-06T13:29:19.367Z,64.88
2022-11-06T13:31:55.403Z,64.11
2022-11-06T13:34:29.414Z,64.13
2022-11-06T13:36:56.677Z,64.14
2022-11-06T13:39:39.478Z,64.10
2022-11-06T13:42:20.596Z,63.53
2022-11-06T13:44:48.316Z,63.96
2022-11-06T13:47:27.927Z,62.63
2022-11-06T13:50:09.397Z,62.55
2022-11-06T13:52:38.537Z,62.77
2022-11-06T13:55:16.964Z,63.40
2022-11-06T13:58:11.638Z,63.37
2022-11-06T14:00:56.898Z,63.41
2022-11-06T14:03:41.161Z,64.51
2022-11-06T14:06:15.549Z,65.14
2022-11-06T14:08:59.297Z,64.88
2022-11-06T14:11:29.907Z,65.40
2022-11-06T14:14:05.660Z,65.47
2022-11-06T14:16:37.761Z,64.93
2022-11-06T14:19:11.046Z,65.40
2022-11-06T14:21:37.339Z,65.40
2022-11-06T14:24:32.962Z,64.66
2022-11-06T14:27:00.560Z,65.23
2022-11-06T14:29:26.863Z,65.08
2022-11-06T14:32:12.429Z,65.26
2022-11-06T14:34:40.965Z,64.52
2022-11-06T14:37:19.213Z,64.15
2022-11-06T14:39:51.658Z,63.62
2022-11-06T14:42:41.603Z,63.32
2022-11-06T14:45:21.405Z,64.13
2022-11-06T14:47:47.678Z,64.18
2022-11-06T14:50:19.694Z,63.82
2022-11-06T14:53:08.296Z,64.10
2022-11-06T14:55:41.203Z,63.70
2022-11-06T14:58:18.943Z,63.59
2022-11-06T15:00:47.966Z,63.29
2022-11-06T15:03:35.444Z,63.38
2022-11-06T15:06:25.945Z,62.34
2022-11-06T15:08:55.957Z,62.70
2022-11-06T15:11:31.112Z,63.04
2022-11-06T15:14:03.473Z,62.22
2022-11-06T15:16:36.736Z,61.45
2022-11-06T15:19:06.271Z,61.91
2022-11-06T15:21:40.912Z,61.96
2022-11-06T15:24:14.467Z,61.64
2022-11-06T15:26:54.101Z,62.64
2022-11-06T15:29:25.998Z,62.57
2022-11-06T15:31:58.986Z,61.34
2022-11-06T15:34:34.450Z,61.52
2022-11-06T15:37:11.052Z,62.27
2022-11-06T15:39:49.290Z,60.76
2022-11-06T15:42:30.081Z,61.75
2022-11-06T15:45:27.394Z,61.61
2022-11-06T15:47:59.359Z,62.21
2022-11-06T15:50:27.112Z,61.88
2022-11-06T15:52:54.458Z,61.78
2022-11-06T15:55:36.463Z,61.59
2022-11-06T15:58:31.278Z,61.57
2022-11-06T16:00:59.610Z,61.85
2022-11-06T16:03:28.938Z,61.77
2022-11-06T16:05:57.257Z,62.44
2022-11-06T16:08:26.314Z,62.84
2022-11-06T16:10:54.363Z,62.36
2022-11-06T16:13:23.716Z,62.54
2022-11-06T16:15:59.126Z,63.14
2022-11-06T16:18:33.399Z,62.20
2022-11-06T16:21:13.210Z,62.37
2022-11-06T16:23:44.993Z,62.02
2022-11-06T16:26:15.344Z,61.32
2022-11-06T16:28:43.997Z,60.84
2022-11-06T16:31:17.108Z,61.21
2022-11-06T16:34:04.588Z,61.94
2022-11-06T16:36:48.515Z,62.13
2022-11-06T16:39:17.670Z,62.42
2022-11-06T16:42:03.658Z,61.14
2022-11-06T16:44:36.013Z,61.49
2022-11-06T16:47:05.395Z,60.88
2022-11-06T16:49:38.642Z,60.68
2022-11-06T16:52:33.121Z,60.66
2022-11-06T16:55:06.851Z,60.69
2022-11-06T16:57:48.894Z,61.12
2022-11-06T17:00:21.245Z,60.73
2022-11-06T17:02:52.338Z,60.59
2022-11-06T17:05:22.319Z,60.59
2022-11-06T17:08:03.872Z,60.26
2022-11-06T17:10:39.904Z,60.03
2022-11-06T17:13:25.127Z,60.18
2022-11-06T17:15:51.357Z,60.24
2022-11-06T17:18:22.183Z,60.60
2022-11-06T17:20:53.221Z,60.74
2022-11-06T17:23:19.858Z,60.51
2022-11-06T17:25:47.501Z,60.53
2022-11-06T17:28:13.831Z,61.15
2022-11-06T17:30:40.643Z,60.61
2022-11-06T17:33:07.336Z,60.92
2022-11-06T17:35:33.786Z,60.73
2022-11-06T17:38:06.065Z,60.98
2022-11-06T17:40:33.707Z,61.15
2022-11-06T17:43:00.013Z,60.82
2022-11-06T17:45:26.478Z,61.05
2022-11-06T17:47:52.908Z,61.13
2022-11-06T17:50:19.362Z,60.88
2022-11-06T17:52:45.777Z,60.96
2022-11-06T17:55:12.120Z,60.96
2022-11-06T17:57:38.476Z,61.85
2022-11-06T18:00:05.344Z,63.59
2022-11-06T18:02:59.052Z,65.81
2022-11-06T18:05:18.280Z,67.21
2022-11-06T18:07:44.594Z,68.77
2022-11-06T18:10:10.918Z,69.40
2022-11-06T18:12:37.278Z,69.03
2022-11-06T18:15:03.880Z,70.42
2022-11-06T18:17:30.283Z,70.41
2022-11-06T18:19:56.643Z,70.94
2022-11-06T18:22:23.129Z,72.72
2022-11-06T18:24:49.479Z,73.79
2022-11-06T18:27:15.914Z,74.04
2022-11-06T18:29:42.257Z,73.78
2022-11-06T18:32:08.581Z,74.44
2022-11-06T18:34:34.937Z,74.77
2022-11-06T18:37:01.269Z,75.49
2022-11-06T18:39:27.726Z,76.34
2022-11-06T18:41:57.657Z,77.49
2022-11-06T18:44:24.009Z,77.71
2022-11-06T18:46:50.354Z,77.55
2022-11-06T18:49:16.708Z,78.36
2022-11-06T18:51:43.482Z,77.95
2022-11-06T18:54:11.427Z,77.85
2022-11-06T18:56:38.157Z,76.59
2022-11-06T18:59:06.668Z,77.21
2022-11-06T19:01:33.556Z,77.00
2022-11-06T19:04:00.032Z,77.27
2022-11-06T19:06:26.350Z,78.22
2022-11-06T19:08:52.644Z,77.95
2022-11-06T19:11:19.208Z,78.42
2022-11-06T19:13:48.355Z,76.73
2022-11-06T19:16:15.905Z,77.14
2022-11-06T19:18:42.301Z,78.19
2022-11-06T19:21:10.778Z,77.71
2022-11-06T19:23:40.143Z,78.32
2022-11-06T19:28:58.362Z,80.22
2022-11-06T19:31:25.026Z,80.27
2022-11-06T19:33:51.349Z,80.80
2022-11-06T19:36:17.653Z,80.69
2022-11-06T19:38:43.971Z,80.67
2022-11-06T19:41:10.270Z,80.42
2022-11-06T19:43:37.918Z,80.66
2022-11-06T19:46:05.420Z,81.33
2022-11-06T19:48:32.713Z,81.55
2022-11-06T19:51:00.241Z,81.11
2022-11-06T19:53:27.481Z,80.78
2022-11-06T19:55:53.800Z,80.42
2022-11-06T19:58:21.039Z,80.21
2022-11-06T20:00:47.347Z,80.25
2022-11-06T20:03:14.431Z,80.14
2022-11-06T20:05:41.495Z,80.04
2022-11-06T20:08:08.673Z,79.86
2022-11-06T20:10:35.019Z,79.12
2022-11-06T20:13:02.447Z,78.45
2022-11-06T20:15:29.526Z,78.33
2022-11-06T20:17:56.113Z,78.15
2022-11-06T20:20:22.663Z,77.62
2022-11-06T20:22:49.091Z,77.57
2022-11-06T20:25:15.561Z,77.60
2022-11-06T20:27:41.933Z,77.56
2022-11-06T20:30:09.084Z,77.35
2022-11-06T20:32:35.549Z,77.28
2022-11-06T20:35:03.345Z,77.07
2022-11-06T20:37:29.702Z,76.89
2022-11-06T20:39:56.115Z,76.94
2022-11-06T20:42:22.710Z,76.10
2022-11-06T20:44:49.170Z,76.40
2022-11-06T20:47:16.162Z,76.14
2022-11-06T20:49:42.555Z,76.18
2022-11-06T20:52:14.080Z,75.42
2022-11-06T20:54:46.950Z,75.36
2022-11-06T20:57:15.647Z,74.60
2022-11-06T20:59:42.682Z,74.05
2022-11-06T21:02:11.550Z,73.42
2022-11-06T21:04:38.047Z,73.34
2022-11-06T21:07:04.416Z,73.08
2022-11-06T21:09:30.729Z,72.93
2022-11-06T21:11:57.084Z,72.69
2022-11-06T21:14:23.392Z,71.47
2022-11-06T21:16:49.745Z,71.04
2022-11-06T21:19:16.076Z,70.89
2022-11-06T21:21:42.426Z,70.49
2022-11-06T21:24:08.811Z,70.09
2022-11-06T21:26:37.580Z,69.85
2022-11-06T21:29:06.702Z,69.59
2022-11-06T21:31:33.486Z,68.86
2022-11-06T21:34:02.103Z,68.43
2022-11-06T21:36:31.494Z,68.54
2022-11-06T21:39:00.698Z,68.57
2022-11-06T21:41:28.857Z,67.87
2022-11-06T21:43:56.081Z,68.19
2022-11-06T21:46:22.434Z,68.69
2022-11-06T21:48:49.459Z,68.48
2022-11-06T21:51:22.520Z,68.39
2022-11-06T21:53:49.737Z,68.40
2022-11-06T21:56:19.990Z,67.40
2022-11-06T21:58:51.352Z,67.67
2022-11-06T22:01:18.928Z,67.74
2022-11-06T22:03:45.508Z,67.67
2022-11-06T22:06:17.312Z,67.62
2022-11-06T22:08:45.129Z,67.87
2022-11-06T22:11:11.404Z,68.22
2022-11-06T22:13:37.760Z,68.03
2022-11-06T22:16:04.473Z,68.19
2022-11-06T22:18:30.827Z,68.07
2022-11-06T22:21:13.326Z,68.59
2022-11-06T22:23:40.113Z,69.13
2022-11-06T22:26:11.031Z,69.50
2022-11-06T22:28:37.576Z,69.86
2022-11-06T22:31:04.800Z,70.15
2022-11-06T22:33:32.310Z,70.49
2022-11-06T22:36:08.733Z,70.19
2022-11-06T22:38:35.720Z,69.99
2022-11-06T22:41:03.941Z,70.78
2022-11-06T22:43:31.893Z,70.19
2022-11-06T22:45:59.663Z,70.60
2022-11-06T22:48:27.906Z,70.60
2022-11-06T22:50:54.491Z,70.45
2022-11-06T22:53:21.423Z,70.53
2022-11-06T22:55:48.220Z,71.10
2022-11-06T22:58:14.594Z,71.07
2022-11-06T23:00:40.968Z,70.84
2022-11-06T23:03:07.414Z,71.36
2022-11-06T23:05:38.610Z,71.40
2022-11-06T23:08:05.278Z,71.36
2022-11-06T23:10:31.723Z,71.67
2022-11-06T23:12:58.455Z,71.94
2022-11-06T23:15:25.192Z,71.81
2022-11-06T23:17:52.561Z,72.23
2022-11-06T23:20:20.229Z,72.01
2022-11-06T23:22:47.230Z,72.23
2022-11-06T23:25:14.480Z,72.30
2022-11-06T23:27:47.025Z,72.78
2022-11-06T23:30:15.892Z,72.69
2022-11-06T23:32:42.285Z,72.51
2022-11-06T23:35:13.519Z,72.62
2022-11-06T23:37:41.607Z,72.86
2022-11-06T23:40:10.308Z,73.15
2022-11-06T23:42:37.005Z,73.71
2022-11-06T23:45:04.873Z,73.68
2022-11-06T23:47:31.464Z,73.94
2022-11-06T23:49:58.374Z,73.63
2022-11-06T23:52:24.857Z,73.93
2022-11-06T23:54:51.283Z,73.97
2022-11-06T23:57:17.657Z,74.02
2022-11-06T23:59:43.981Z,74.04
